sensor_id;sensor_type;location;lat;lon;timestamp;P1;durP1;ratioP1;P2;durP2;ratioP2
31676;SDS011;18385;51.572;6.578;2022-12-31T00:01:17;1.55;;;0.30;;
31676;SDS011;18385;51.572;6.578;2022-12-31T00:03:44;2.35;;;0.17;;
31676;SDS011;18385;51.572;6.578;2022-12-31T00:06:21;2.03;;;0.40;;
31676;SDS011;18385;51.572;6.578;2022-12-31T00:08:56;1.13;;;0.40;;
31676;SDS011;18385;51.572;6.578;2022-12-31T00:11:26;0.35;;;0.20;;
31676;SDS011;18385;51.572;6.578;2022-12-31T00:13:54;0.70;;;0.30;;
31676;SDS011;18385;51.572;6.578;2022-12-31T00:16:32;3.60;;;0.30;;
31676;SDS011;18385;51.572;6.578;2022-12-31T00:19:00;0.70;;;0.50;;
31676;SDS011;18385;51.572;6.578;2022-12-31T00:21:28;0.70;;;0.30;;
31676;SDS011;18385;51.572;6.578;2022-12-31T00:23:55;1.17;;;0.28;;
31676;SDS011;18385;51.572;6.578;2022-12-31T00:26:23;0.50;;;0.20;;
31676;SDS011;18385;51.572;6.578;2022-12-31T00:28:51;0.88;;;0.20;;
31676;SDS011;18385;51.572;6.578;2022-12-31T00:31:29;0.75;;;0.20;;
31676;SDS011;18385;51.572;6.578;2022-12-31T00:33:57;0.70;;;0.10;;
31676;SDS011;18385;51.572;6.578;2022-12-31T00:36:25;0.82;;;0.20;;
31676;SDS011;18385;51.572;6.578;2022-12-31T00:38:56;1.45;;;0.10;;
31676;SDS011;18385;51.572;6.578;2022-12-31T00:41:24;0.80;;;0.15;;
31676;SDS011;18385;51.572;6.578;2022-12-31T00:43:51;1.27;;;0.10;;
31676;SDS011;18385;51.572;6.578;2022-12-31T00:46:17;0.55;;;0.22;;
31676;SDS011;18385;51.572;6.578;2022-12-31T00:48:43;2.25;;;0.50;;
31676;SDS011;18385;51.572;6.578;2022-12-31T00:51:10;1.77;;;0.20;;
31676;SDS011;18385;51.572;6.578;2022-12-31T00:53:38;0.68;;;0.15;;
31676;SDS011;18385;51.572;6.578;2022-12-31T00:56:05;0.38;;;0.20;;
31676;SDS011;18385;51.572;6.578;2022-12-31T00:58:34;0.52;;;0.40;;
31676;SDS011;18385;51.572;6.578;2022-12-31T01:01:16;0.95;;;0.20;;
31676;SDS011;18385;51.572;6.578;2022-12-31T01:03:48;0.63;;;0.20;;
31676;SDS011;18385;51.572;6.578;2022-12-31T01:06:15;3.38;;;0.22;;
31676;SDS011;18385;51.572;6.578;2022-12-31T01:08:41;0.43;;;0.13;;
31676;SDS011;18385;51.572;6.578;2022-12-31T01:11:08;0.60;;;0.40;;
31676;SDS011;18385;51.572;6.578;2022-12-31T01:16:19;0.50;;;0.20;;
31676;SDS011;18385;51.572;6.578;2022-12-31T01:18:50;1.70;;;0.30;;
31676;SDS011;18385;51.572;6.578;2022-12-31T01:21:16;1.92;;;0.50;;
31676;SDS011;18385;51.572;6.578;2022-12-31T01:23:42;0.35;;;0.13;;
31676;SDS011;18385;51.572;6.578;2022-12-31T01:26:09;0.75;;;0.30;;
31676;SDS011;18385;51.572;6.578;2022-12-31T01:28:36;2.78;;;0.30;;
31676;SDS011;18385;51.572;6.578;2022-12-31T01:31:06;3.05;;;0.35;;
31676;SDS011;18385;51.572;6.578;2022-12-31T01:33:34;0.38;;;0.17;;
31676;SDS011;18385;51.572;6.578;2022-12-31T01:36:01;1.70;;;0.20;;
31676;SDS011;18385;51.572;6.578;2022-12-31T01:38:27;0.55;;;0.30;;
31676;SDS011;18385;51.572;6.578;2022-12-31T01:40:53;3.72;;;0.20;;
31676;SDS011;18385;51.572;6.578;2022-12-31T01:43:19;2.10;;;0.20;;
31676;SDS011;18385;51.572;6.578;2022-12-31T01:45:46;0.40;;;0.10;;
31676;SDS011;18385;51.572;6.578;2022-12-31T01:48:16;0.22;;;0.00;;
31676;SDS011;18385;51.572;6.578;2022-12-31T01:50:46;0.15;;;0.00;;
31676;SDS011;18385;51.572;6.578;2022-12-31T01:53:13;0.00;;;0.00;;
31676;SDS011;18385;51.572;6.578;2022-12-31T01:55:46;2.92;;;0.20;;
31676;SDS011;18385;51.572;6.578;2022-12-31T01:58:29;0.13;;;0.00;;
31676;SDS011;18385;51.572;6.578;2022-12-31T02:01:00;0.00;;;0.00;;
31676;SDS011;18385;51.572;6.578;2022-12-31T02:03:26;0.08;;;0.00;;
31676;SDS011;18385;51.572;6.578;2022-12-31T02:05:54;0.57;;;0.00;;
31676;SDS011;18385;51.572;6.578;2022-12-31T02:08:25;0.00;;;0.00;;
31676;SDS011;18385;51.572;6.578;2022-12-31T02:10:50;0.10;;;0.00;;
31676;SDS011;18385;51.572;6.578;2022-12-31T02:13:16;0.30;;;0.00;;
31676;SDS011;18385;51.572;6.578;2022-12-31T02:18:41;0.08;;;0.00;;
31676;SDS011;18385;51.572;6.578;2022-12-31T02:23:55;1.67;;;0.30;;
31676;SDS011;18385;51.572;6.578;2022-12-31T02:32:27;3.78;;;0.30;;
31676;SDS011;18385;51.572;6.578;2022-12-31T02:35:00;0.28;;;0.10;;
31676;SDS011;18385;51.572;6.578;2022-12-31T02:40:05;0.10;;;0.00;;
31676;SDS011;18385;51.572;6.578;2022-12-31T02:42:34;0.10;;;0.00;;
31676;SDS011;18385;51.572;6.578;2022-12-31T02:44:59;1.17;;;0.13;;
31676;SDS011;18385;51.572;6.578;2022-12-31T02:47:42;0.10;;;0.00;;
31676;SDS011;18385;51.572;6.578;2022-12-31T02:55:56;0.00;;;0.00;;
31676;SDS011;18385;51.572;6.578;2022-12-31T02:59:01;0.75;;;0.00;;
31676;SDS011;18385;51.572;6.578;2022-12-31T03:01:52;0.20;;;0.00;;
31676;SDS011;18385;51.572;6.578;2022-12-31T03:04:43;0.30;;;0.22;;
31676;SDS011;18385;51.572;6.578;2022-12-31T03:07:12;0.13;;;0.00;;
31676;SDS011;18385;51.572;6.578;2022-12-31T03:09:41;1.25;;;0.00;;
31676;SDS011;18385;51.572;6.578;2022-12-31T03:12:08;1.13;;;0.15;;
31676;SDS011;18385;51.572;6.578;2022-12-31T03:14:53;0.30;;;0.00;;
31676;SDS011;18385;51.572;6.578;2022-12-31T03:17:19;0.30;;;0.03;;
31676;SDS011;18385;51.572;6.578;2022-12-31T03:19:44;0.20;;;0.00;;
31676;SDS011;18385;51.572;6.578;2022-12-31T03:22:29;0.65;;;0.10;;
31676;SDS011;18385;51.572;6.578;2022-12-31T03:27:43;0.35;;;0.00;;
31676;SDS011;18385;51.572;6.578;2022-12-31T03:30:09;0.00;;;0.00;;
31676;SDS011;18385;51.572;6.578;2022-12-31T03:32:36;0.32;;;0.00;;
31676;SDS011;18385;51.572;6.578;2022-12-31T03:35:02;3.50;;;0.10;;
31676;SDS011;18385;51.572;6.578;2022-12-31T03:37:28;0.38;;;0.32;;
31676;SDS011;18385;51.572;6.578;2022-12-31T03:39:53;0.00;;;0.00;;
31676;SDS011;18385;51.572;6.578;2022-12-31T03:42:19;0.38;;;0.00;;
31676;SDS011;18385;51.572;6.578;2022-12-31T03:44:45;0.00;;;0.00;;
31676;SDS011;18385;51.572;6.578;2022-12-31T03:47:10;0.00;;;0.00;;
31676;SDS011;18385;51.572;6.578;2022-12-31T03:49:36;0.00;;;0.00;;
31676;SDS011;18385;51.572;6.578;2022-12-31T03:52:02;0.00;;;0.00;;
31676;SDS011;18385;51.572;6.578;2022-12-31T03:54:31;0.10;;;0.00;;
31676;SDS011;18385;51.572;6.578;2022-12-31T03:56:57;0.10;;;0.00;;
31676;SDS011;18385;51.572;6.578;2022-12-31T03:59:22;0.20;;;0.00;;
31676;SDS011;18385;51.572;6.578;2022-12-31T04:01:48;0.00;;;0.00;;
31676;SDS011;18385;51.572;6.578;2022-12-31T04:04:14;0.35;;;0.00;;
31676;SDS011;18385;51.572;6.578;2022-12-31T04:06:39;0.50;;;0.00;;
31676;SDS011;18385;51.572;6.578;2022-12-31T04:09:05;0.22;;;0.00;;
31676;SDS011;18385;51.572;6.578;2022-12-31T04:11:30;0.30;;;0.00;;
31676;SDS011;18385;51.572;6.578;2022-12-31T04:13:56;0.00;;;0.00;;
31676;SDS011;18385;51.572;6.578;2022-12-31T04:16:23;0.20;;;0.00;;
31676;SDS011;18385;51.572;6.578;2022-12-31T04:18:49;0.82;;;0.20;;
31676;SDS011;18385;51.572;6.578;2022-12-31T04:21:15;0.00;;;0.00;;
31676;SDS011;18385;51.572;6.578;2022-12-31T04:23:40;0.95;;;0.10;;
31676;SDS011;18385;51.572;6.578;2022-12-31T04:26:06;0.10;;;0.00;;
31676;SDS011;18385;51.572;6.578;2022-12-31T04:28:31;0.38;;;0.00;;
31676;SDS011;18385;51.572;6.578;2022-12-31T04:30:57;1.25;;;0.00;;
31676;SDS011;18385;51.572;6.578;2022-12-31T04:33:23;0.65;;;0.10;;
31676;SDS011;18385;51.572;6.578;2022-12-31T04:35:48;0.00;;;0.00;;
31676;SDS011;18385;51.572;6.578;2022-12-31T04:38:14;1.25;;;0.38;;
31676;SDS011;18385;51.572;6.578;2022-12-31T04:40:39;1.35;;;0.10;;
31676;SDS011;18385;51.572;6.578;2022-12-31T04:43:25;2.70;;;0.10;;
31676;SDS011;18385;51.572;6.578;2022-12-31T04:45:51;0.82;;;0.10;;
31676;SDS011;18385;51.572;6.578;2022-12-31T04:48:16;0.73;;;0.08;;
31676;SDS011;18385;51.572;6.578;2022-12-31T04:50:42;1.65;;;0.13;;
31676;SDS011;18385;51.572;6.578;2022-12-31T04:53:07;1.73;;;0.10;;
31676;SDS011;18385;51.572;6.578;2022-12-31T04:55:33;1.35;;;0.10;;
31676;SDS011;18385;51.572;6.578;2022-12-31T04:57:59;1.85;;;0.30;;
31676;SDS011;18385;51.572;6.578;2022-12-31T05:00:24;2.30;;;0.55;;
31676;SDS011;18385;51.572;6.578;2022-12-31T05:02:50;0.80;;;0.20;;
31676;SDS011;18385;51.572;6.578;2022-12-31T05:05:15;2.25;;;0.93;;
31676;SDS011;18385;51.572;6.578;2022-12-31T05:07:41;1.27;;;0.30;;
31676;SDS011;18385;51.572;6.578;2022-12-31T05:10:07;1.55;;;0.10;;
31676;SDS011;18385;51.572;6.578;2022-12-31T05:12:33;0.20;;;0.10;;
31676;SDS011;18385;51.572;6.578;2022-12-31T05:14:58;0.57;;;0.10;;
31676;SDS011;18385;51.572;6.578;2022-12-31T05:17:24;0.52;;;0.15;;
31676;SDS011;18385;51.572;6.578;2022-12-31T05:19:49;1.75;;;0.38;;
31676;SDS011;18385;51.572;6.578;2022-12-31T05:22:15;0.47;;;0.10;;
31676;SDS011;18385;51.572;6.578;2022-12-31T05:24:53;0.82;;;0.00;;
31676;SDS011;18385;51.572;6.578;2022-12-31T05:27:19;0.32;;;0.00;;
31676;SDS011;18385;51.572;6.578;2022-12-31T05:29:44;1.25;;;0.10;;
31676;SDS011;18385;51.572;6.578;2022-12-31T05:32:10;0.55;;;0.52;;
31676;SDS011;18385;51.572;6.578;2022-12-31T05:34:36;0.10;;;0.05;;
31676;SDS011;18385;51.572;6.578;2022-12-31T05:37:02;1.65;;;0.10;;
31676;SDS011;18385;51.572;6.578;2022-12-31T05:39:27;0.95;;;0.10;;
31676;SDS011;18385;51.572;6.578;2022-12-31T05:41:53;0.90;;;0.10;;
31676;SDS011;18385;51.572;6.578;2022-12-31T05:44:18;2.00;;;0.35;;
31676;SDS011;18385;51.572;6.578;2022-12-31T05:46:44;1.77;;;0.25;;
31676;SDS011;18385;51.572;6.578;2022-12-31T05:49:11;2.78;;;0.00;;
31676;SDS011;18385;51.572;6.578;2022-12-31T05:51:37;0.88;;;0.55;;
31676;SDS011;18385;51.572;6.578;2022-12-31T05:54:02;0.52;;;0.17;;
31676;SDS011;18385;51.572;6.578;2022-12-31T05:56:28;0.88;;;0.10;;
31676;SDS011;18385;51.572;6.578;2022-12-31T05:58:54;1.35;;;0.20;;
31676;SDS011;18385;51.572;6.578;2022-12-31T06:01:20;0.52;;;0.10;;
31676;SDS011;18385;51.572;6.578;2022-12-31T06:03:46;0.10;;;0.10;;
31676;SDS011;18385;51.572;6.578;2022-12-31T06:06:12;1.58;;;0.25;;
31676;SDS011;18385;51.572;6.578;2022-12-31T06:08:38;1.80;;;0.10;;
31676;SDS011;18385;51.572;6.578;2022-12-31T06:11:03;0.52;;;0.10;;
31676;SDS011;18385;51.572;6.578;2022-12-31T06:13:29;1.38;;;0.10;;
31676;SDS011;18385;51.572;6.578;2022-12-31T06:15:55;0.47;;;0.38;;
31676;SDS011;18385;51.572;6.578;2022-12-31T06:18:21;0.63;;;0.20;;
31676;SDS011;18385;51.572;6.578;2022-12-31T06:20:47;0.95;;;0.00;;
31676;SDS011;18385;51.572;6.578;2022-12-31T06:23:12;0.32;;;0.10;;
31676;SDS011;18385;51.572;6.578;2022-12-31T06:25:38;0.80;;;0.00;;
31676;SDS011;18385;51.572;6.578;2022-12-31T06:28:04;1.33;;;0.10;;
31676;SDS011;18385;51.572;6.578;2022-12-31T06:30:30;0.65;;;0.10;;
31676;SDS011;18385;51.572;6.578;2022-12-31T06:32:56;0.95;;;0.10;;
31676;SDS011;18385;51.572;6.578;2022-12-31T06:35:21;2.13;;;0.00;;
31676;SDS011;18385;51.572;6.578;2022-12-31T06:37:48;0.30;;;0.08;;
31676;SDS011;18385;51.572;6.578;2022-12-31T06:40:13;1.08;;;0.30;;
31676;SDS011;18385;51.572;6.578;2022-12-31T06:42:39;1.05;;;0.45;;
31676;SDS011;18385;51.572;6.578;2022-12-31T06:45:06;1.27;;;0.10;;
31676;SDS011;18385;51.572;6.578;2022-12-31T06:47:32;0.68;;;0.10;;
31676;SDS011;18385;51.572;6.578;2022-12-31T06:49:58;0.57;;;0.10;;
31676;SDS011;18385;51.572;6.578;2022-12-31T06:52:23;1.17;;;0.05;;
31676;SDS011;18385;51.572;6.578;2022-12-31T06:54:49;1.15;;;0.15;;
31676;SDS011;18385;51.572;6.578;2022-12-31T06:57:15;0.55;;;0.10;;
31676;SDS011;18385;51.572;6.578;2022-12-31T06:59:41;0.57;;;0.20;;
31676;SDS011;18385;51.572;6.578;2022-12-31T07:07:48;0.40;;;0.00;;
31676;SDS011;18385;51.572;6.578;2022-12-31T07:10:47;1.23;;;0.20;;
31676;SDS011;18385;51.572;6.578;2022-12-31T07:13:26;0.60;;;0.10;;
31676;SDS011;18385;51.572;6.578;2022-12-31T07:21:02;1.52;;;0.22;;
31676;SDS011;18385;51.572;6.578;2022-12-31T07:23:33;0.60;;;0.13;;
31676;SDS011;18385;51.572;6.578;2022-12-31T07:26:00;2.42;;;0.20;;
31676;SDS011;18385;51.572;6.578;2022-12-31T07:28:49;2.60;;;0.30;;
31676;SDS011;18385;51.572;6.578;2022-12-31T07:39:45;1.55;;;0.20;;
31676;SDS011;18385;51.572;6.578;2022-12-31T07:42:36;2.90;;;0.20;;
31676;SDS011;18385;51.572;6.578;2022-12-31T07:47:48;0.45;;;0.10;;
31676;SDS011;18385;51.572;6.578;2022-12-31T07:50:15;1.67;;;0.22;;
31676;SDS011;18385;51.572;6.578;2022-12-31T07:52:42;1.25;;;0.88;;
31676;SDS011;18385;51.572;6.578;2022-12-31T07:55:09;2.05;;;0.22;;
31676;SDS011;18385;51.572;6.578;2022-12-31T07:57:52;1.55;;;0.10;;
31676;SDS011;18385;51.572;6.578;2022-12-31T08:00:25;1.52;;;0.17;;
31676;SDS011;18385;51.572;6.578;2022-12-31T08:03:00;1.38;;;0.20;;
31676;SDS011;18385;51.572;6.578;2022-12-31T08:05:45;2.63;;;0.20;;
31676;SDS011;18385;51.572;6.578;2022-12-31T08:11:27;0.32;;;0.00;;
31676;SDS011;18385;51.572;6.578;2022-12-31T08:13:59;1.10;;;0.20;;
31676;SDS011;18385;51.572;6.578;2022-12-31T08:16:26;1.98;;;0.50;;
31676;SDS011;18385;51.572;6.578;2022-12-31T08:18:52;3.92;;;1.50;;
31676;SDS011;18385;51.572;6.578;2022-12-31T08:21:21;1.50;;;0.30;;
31676;SDS011;18385;51.572;6.578;2022-12-31T08:32:27;1.55;;;0.20;;
31676;SDS011;18385;51.572;6.578;2022-12-31T08:37:37;2.38;;;0.20;;
31676;SDS011;18385;51.572;6.578;2022-12-31T08:42:53;0.43;;;0.10;;
31676;SDS011;18385;51.572;6.578;2022-12-31T08:45:38;0.70;;;0.20;;
31676;SDS011;18385;51.572;6.578;2022-12-31T08:50:49;1.52;;;0.17;;
31676;SDS011;18385;51.572;6.578;2022-12-31T08:53:15;1.23;;;0.10;;
31676;SDS011;18385;51.572;6.578;2022-12-31T08:55:41;2.65;;;0.40;;
31676;SDS011;18385;51.572;6.578;2022-12-31T09:00:56;2.60;;;0.40;;
31676;SDS011;18385;51.572;6.578;2022-12-31T09:03:40;0.95;;;0.10;;
31676;SDS011;18385;51.572;6.578;2022-12-31T09:08:50;0.47;;;0.05;;
31676;SDS011;18385;51.572;6.578;2022-12-31T09:11:44;2.25;;;0.10;;
31676;SDS011;18385;51.572;6.578;2022-12-31T09:17:41;0.88;;;0.10;;
31676;SDS011;18385;51.572;6.578;2022-12-31T09:22:52;0.80;;;0.10;;
31676;SDS011;18385;51.572;6.578;2022-12-31T09:25:19;0.90;;;0.20;;
31676;SDS011;18385;51.572;6.578;2022-12-31T09:30:37;0.73;;;0.13;;
31676;SDS011;18385;51.572;6.578;2022-12-31T09:33:11;3.25;;;0.38;;
31676;SDS011;18385;51.572;6.578;2022-12-31T09:38:21;0.85;;;0.17;;
31676;SDS011;18385;51.572;6.578;2022-12-31T09:41:13;1.17;;;0.25;;
31676;SDS011;18385;51.572;6.578;2022-12-31T09:52:46;2.08;;;0.17;;
31676;SDS011;18385;51.572;6.578;2022-12-31T09:58:18;2.03;;;0.15;;
31676;SDS011;18385;51.572;6.578;2022-12-31T10:01:26;1.38;;;0.10;;
31676;SDS011;18385;51.572;6.578;2022-12-31T10:12:50;1.48;;;0.10;;
31676;SDS011;18385;51.572;6.578;2022-12-31T10:18:35;1.60;;;0.20;;
31676;SDS011;18385;51.572;6.578;2022-12-31T10:24:22;2.42;;;0.40;;
31676;SDS011;18385;51.572;6.578;2022-12-31T10:27:09;3.72;;;0.25;;
31676;SDS011;18385;51.572;6.578;2022-12-31T10:38:10;1.05;;;0.13;;
31676;SDS011;18385;51.572;6.578;2022-12-31T10:46:24;2.38;;;0.22;;
31676;SDS011;18385;51.572;6.578;2022-12-31T10:54:49;1.95;;;0.30;;
31676;SDS011;18385;51.572;6.578;2022-12-31T11:06:13;4.72;;;1.15;;
31676;SDS011;18385;51.572;6.578;2022-12-31T11:09:14;1.17;;;0.20;;
31676;SDS011;18385;51.572;6.578;2022-12-31T11:17:12;2.72;;;0.25;;
31676;SDS011;18385;51.572;6.578;2022-12-31T11:22:57;2.15;;;0.30;;
31676;SDS011;18385;51.572;6.578;2022-12-31T11:26:25;1.63;;;0.30;;
31676;SDS011;18385;51.572;6.578;2022-12-31T11:31:11;2.58;;;0.50;;
31676;SDS011;18385;51.572;6.578;2022-12-31T11:34:01;2.70;;;0.30;;
31676;SDS011;18385;51.572;6.578;2022-12-31T11:39:43;3.08;;;0.35;;
31676;SDS011;18385;51.572;6.578;2022-12-31T11:45:25;2.83;;;0.43;;
31676;SDS011;18385;51.572;6.578;2022-12-31T11:50:54;1.92;;;0.20;;
31676;SDS011;18385;51.572;6.578;2022-12-31T11:56:16;2.80;;;0.40;;
31676;SDS011;18385;51.572;6.578;2022-12-31T11:58:50;2.22;;;0.28;;
31676;SDS011;18385;51.572;6.578;2022-12-31T12:01:23;1.45;;;0.38;;
31676;SDS011;18385;51.572;6.578;2022-12-31T12:03:58;1.75;;;0.38;;
31676;SDS011;18385;51.572;6.578;2022-12-31T12:06:29;1.73;;;0.77;;
31676;SDS011;18385;51.572;6.578;2022-12-31T12:09:06;2.47;;;0.30;;
31676;SDS011;18385;51.572;6.578;2022-12-31T12:11:40;2.00;;;0.30;;
31676;SDS011;18385;51.572;6.578;2022-12-31T12:14:20;7.15;;;1.08;;
31676;SDS011;18385;51.572;6.578;2022-12-31T12:16:54;1.92;;;0.22;;
31676;SDS011;18385;51.572;6.578;2022-12-31T12:19:21;1.25;;;0.20;;
31676;SDS011;18385;51.572;6.578;2022-12-31T12:21:50;2.33;;;0.10;;
31676;SDS011;18385;51.572;6.578;2022-12-31T12:24:20;0.93;;;0.30;;
31676;SDS011;18385;51.572;6.578;2022-12-31T12:26:50;3.78;;;0.30;;
31676;SDS011;18385;51.572;6.578;2022-12-31T12:29:17;2.38;;;0.20;;
31676;SDS011;18385;51.572;6.578;2022-12-31T12:31:54;2.85;;;0.28;;
31676;SDS011;18385;51.572;6.578;2022-12-31T12:34:24;2.25;;;0.20;;
31676;SDS011;18385;51.572;6.578;2022-12-31T12:37:01;4.05;;;0.30;;
31676;SDS011;18385;51.572;6.578;2022-12-31T12:39:28;1.77;;;0.40;;
31676;SDS011;18385;51.572;6.578;2022-12-31T12:41:59;2.80;;;0.40;;
31676;SDS011;18385;51.572;6.578;2022-12-31T12:44:27;2.05;;;0.30;;
31676;SDS011;18385;51.572;6.578;2022-12-31T12:46:53;0.75;;;0.17;;
31676;SDS011;18385;51.572;6.578;2022-12-31T12:49:24;2.38;;;0.55;;
31676;SDS011;18385;51.572;6.578;2022-12-31T12:57:43;3.95;;;0.32;;
31676;SDS011;18385;51.572;6.578;2022-12-31T13:10:47;3.70;;;0.65;;
31676;SDS011;18385;51.572;6.578;2022-12-31T13:21:09;5.60;;;0.40;;
31676;SDS011;18385;51.572;6.578;2022-12-31T13:26:30;4.63;;;0.80;;
31676;SDS011;18385;51.572;6.578;2022-12-31T13:28:56;2.63;;;0.47;;
31676;SDS011;18385;51.572;6.578;2022-12-31T13:34:15;2.40;;;0.50;;
31676;SDS011;18385;51.572;6.578;2022-12-31T13:36:44;1.85;;;0.50;;
31676;SDS011;18385;51.572;6.578;2022-12-31T13:39:16;3.40;;;0.60;;
31676;SDS011;18385;51.572;6.578;2022-12-31T13:44:53;4.32;;;1.20;;
31676;SDS011;18385;51.572;6.578;2022-12-31T13:47:32;4.20;;;0.43;;
31676;SDS011;18385;51.572;6.578;2022-12-31T13:52:45;1.77;;;0.70;;
31676;SDS011;18385;51.572;6.578;2022-12-31T13:57:46;1.42;;;0.43;;
31676;SDS011;18385;51.572;6.578;2022-12-31T14:05:33;1.85;;;0.32;;
31676;SDS011;18385;51.572;6.578;2022-12-31T14:08:05;2.88;;;0.30;;
31676;SDS011;18385;51.572;6.578;2022-12-31T14:10:44;4.00;;;1.02;;
31676;SDS011;18385;51.572;6.578;2022-12-31T14:16:18;3.08;;;0.40;;
31676;SDS011;18385;51.572;6.578;2022-12-31T14:19:50;5.00;;;0.35;;
31676;SDS011;18385;51.572;6.578;2022-12-31T14:22:12;3.33;;;0.50;;
31676;SDS011;18385;51.572;6.578;2022-12-31T14:25:03;6.03;;;0.65;;
31676;SDS011;18385;51.572;6.578;2022-12-31T14:27:40;3.75;;;1.20;;
31676;SDS011;18385;51.572;6.578;2022-12-31T14:30:13;3.40;;;0.60;;
31676;SDS011;18385;51.572;6.578;2022-12-31T14:41:08;5.75;;;2.40;;
31676;SDS011;18385;51.572;6.578;2022-12-31T14:48:41;4.25;;;0.38;;
31676;SDS011;18385;51.572;6.578;2022-12-31T14:51:20;5.68;;;0.75;;
31676;SDS011;18385;51.572;6.578;2022-12-31T14:53:52;5.65;;;0.50;;
31676;SDS011;18385;51.572;6.578;2022-12-31T14:59:21;2.92;;;0.65;;
31676;SDS011;18385;51.572;6.578;2022-12-31T15:01:52;3.47;;;0.40;;
31676;SDS011;18385;51.572;6.578;2022-12-31T15:07:29;4.38;;;0.80;;
31676;SDS011;18385;51.572;6.578;2022-12-31T15:18:39;4.93;;;0.80;;
31676;SDS011;18385;51.572;6.578;2022-12-31T15:21:40;2.80;;;0.60;;
31676;SDS011;18385;51.572;6.578;2022-12-31T15:24:25;3.40;;;0.98;;
31676;SDS011;18385;51.572;6.578;2022-12-31T15:26:58;1.33;;;0.52;;
31676;SDS011;18385;51.572;6.578;2022-12-31T15:32:00;6.13;;;1.33;;
31676;SDS011;18385;51.572;6.578;2022-12-31T15:36:58;2.45;;;0.50;;
31676;SDS011;18385;51.572;6.578;2022-12-31T15:41:54;4.20;;;0.70;;
31676;SDS011;18385;51.572;6.578;2022-12-31T15:44:23;2.65;;;0.57;;
31676;SDS011;18385;51.572;6.578;2022-12-31T15:47:13;4.82;;;1.25;;
31676;SDS011;18385;51.572;6.578;2022-12-31T15:50:00;4.68;;;1.35;;
31676;SDS011;18385;51.572;6.578;2022-12-31T15:52:40;5.05;;;1.15;;
31676;SDS011;18385;51.572;6.578;2022-12-31T15:55:13;11.52;;;3.15;;
31676;SDS011;18385;51.572;6.578;2022-12-31T15:57:46;9.88;;;1.13;;
31676;SDS011;18385;51.572;6.578;2022-12-31T16:00:17;4.93;;;1.08;;
31676;SDS011;18385;51.572;6.578;2022-12-31T16:02:46;7.22;;;1.42;;
31676;SDS011;18385;51.572;6.578;2022-12-31T16:05:18;6.50;;;2.97;;
31676;SDS011;18385;51.572;6.578;2022-12-31T16:07:50;6.72;;;1.80;;
31676;SDS011;18385;51.572;6.578;2022-12-31T16:10:20;4.03;;;2.20;;
31676;SDS011;18385;51.572;6.578;2022-12-31T16:12:55;7.55;;;2.92;;
31676;SDS011;18385;51.572;6.578;2022-12-31T16:15:26;7.53;;;2.80;;
31676;SDS011;18385;51.572;6.578;2022-12-31T16:17:58;7.28;;;2.22;;
31676;SDS011;18385;51.572;6.578;2022-12-31T16:20:30;6.65;;;1.60;;
31676;SDS011;18385;51.572;6.578;2022-12-31T16:22:58;5.30;;;1.13;;
31676;SDS011;18385;51.572;6.578;2022-12-31T16:25:27;4.25;;;0.88;;
31676;SDS011;18385;51.572;6.578;2022-12-31T16:27:54;3.70;;;1.20;;
31676;SDS011;18385;51.572;6.578;2022-12-31T16:30:22;3.03;;;0.68;;
31676;SDS011;18385;51.572;6.578;2022-12-31T16:32:56;3.10;;;0.90;;
31676;SDS011;18385;51.572;6.578;2022-12-31T16:38:13;4.07;;;1.10;;
31676;SDS011;18385;51.572;6.578;2022-12-31T16:40:42;2.97;;;0.95;;
31676;SDS011;18385;51.572;6.578;2022-12-31T16:43:28;1.98;;;0.73;;
31676;SDS011;18385;51.572;6.578;2022-12-31T16:48:52;4.35;;;0.80;;
31676;SDS011;18385;51.572;6.578;2022-12-31T16:51:19;3.10;;;0.73;;
31676;SDS011;18385;51.572;6.578;2022-12-31T16:53:48;4.15;;;0.85;;
31676;SDS011;18385;51.572;6.578;2022-12-31T16:56:21;5.90;;;0.93;;
31676;SDS011;18385;51.572;6.578;2022-12-31T16:58:55;6.17;;;2.47;;
31676;SDS011;18385;51.572;6.578;2022-12-31T17:01:26;4.80;;;0.98;;
31676;SDS011;18385;51.572;6.578;2022-12-31T17:03:57;4.80;;;2.08;;
31676;SDS011;18385;51.572;6.578;2022-12-31T17:06:35;6.35;;;1.65;;
31676;SDS011;18385;51.572;6.578;2022-12-31T17:09:06;2.97;;;1.02;;
31676;SDS011;18385;51.572;6.578;2022-12-31T17:14:16;4.35;;;1.25;;
31676;SDS011;18385;51.572;6.578;2022-12-31T17:16:54;2.88;;;1.00;;
31676;SDS011;18385;51.572;6.578;2022-12-31T17:19:34;2.30;;;1.00;;
31676;SDS011;18385;51.572;6.578;2022-12-31T17:22:21;4.43;;;1.33;;
31676;SDS011;18385;51.572;6.578;2022-12-31T17:27:31;2.80;;;1.45;;
31676;SDS011;18385;51.572;6.578;2022-12-31T17:35:30;1.65;;;0.60;;
31676;SDS011;18385;51.572;6.578;2022-12-31T17:40:44;2.90;;;0.85;;
31676;SDS011;18385;51.572;6.578;2022-12-31T17:43:12;5.13;;;1.00;;
31676;SDS011;18385;51.572;6.578;2022-12-31T17:45:41;8.05;;;1.80;;
31676;SDS011;18385;51.572;6.578;2022-12-31T17:48:13;10.20;;;2.80;;
31676;SDS011;18385;51.572;6.578;2022-12-31T17:50:53;5.32;;;1.25;;
31676;SDS011;18385;51.572;6.578;2022-12-31T17:53:21;2.92;;;1.00;;
31676;SDS011;18385;51.572;6.578;2022-12-31T17:55:48;2.65;;;1.05;;
31676;SDS011;18385;51.572;6.578;2022-12-31T17:58:17;6.97;;;0.65;;
31676;SDS011;18385;51.572;6.578;2022-12-31T18:00:53;4.07;;;1.13;;
31676;SDS011;18385;51.572;6.578;2022-12-31T18:03:20;3.08;;;1.25;;
31676;SDS011;18385;51.572;6.578;2022-12-31T18:05:45;4.18;;;0.88;;
31676;SDS011;18385;51.572;6.578;2022-12-31T18:08:11;2.92;;;0.70;;
31676;SDS011;18385;51.572;6.578;2022-12-31T18:10:37;3.65;;;1.10;;
31676;SDS011;18385;51.572;6.578;2022-12-31T18:13:06;3.67;;;1.13;;
31676;SDS011;18385;51.572;6.578;2022-12-31T18:15:38;1.65;;;0.68;;
31676;SDS011;18385;51.572;6.578;2022-12-31T18:18:37;4.95;;;1.50;;
31676;SDS011;18385;51.572;6.578;2022-12-31T18:21:00;4.38;;;1.80;;
31676;SDS011;18385;51.572;6.578;2022-12-31T18:23:30;4.38;;;1.05;;
31676;SDS011;18385;51.572;6.578;2022-12-31T18:26:14;4.72;;;1.27;;
31676;SDS011;18385;51.572;6.578;2022-12-31T18:28:41;5.95;;;1.48;;
31676;SDS011;18385;51.572;6.578;2022-12-31T18:31:12;2.85;;;1.40;;
31676;SDS011;18385;51.572;6.578;2022-12-31T18:33:49;3.63;;;0.75;;
31676;SDS011;18385;51.572;6.578;2022-12-31T18:36:16;2.92;;;1.10;;
31676;SDS011;18385;51.572;6.578;2022-12-31T18:38:43;4.05;;;1.25;;
31676;SDS011;18385;51.572;6.578;2022-12-31T18:41:14;3.50;;;1.02;;
31676;SDS011;18385;51.572;6.578;2022-12-31T18:43:45;5.75;;;0.77;;
31676;SDS011;18385;51.572;6.578;2022-12-31T18:46:12;5.00;;;0.90;;
31676;SDS011;18385;51.572;6.578;2022-12-31T18:48:39;3.67;;;1.80;;
31676;SDS011;18385;51.572;6.578;2022-12-31T18:51:06;4.47;;;0.85;;
31676;SDS011;18385;51.572;6.578;2022-12-31T18:53:36;3.65;;;1.13;;
31676;SDS011;18385;51.572;6.578;2022-12-31T18:56:02;8.98;;;2.80;;
31676;SDS011;18385;51.572;6.578;2022-12-31T18:58:28;10.75;;;4.22;;
31676;SDS011;18385;51.572;6.578;2022-12-31T19:00:54;5.43;;;1.75;;
31676;SDS011;18385;51.572;6.578;2022-12-31T19:03:21;5.30;;;1.50;;
31676;SDS011;18385;51.572;6.578;2022-12-31T19:05:48;8.57;;;1.30;;
31676;SDS011;18385;51.572;6.578;2022-12-31T19:08:18;5.25;;;1.58;;
31676;SDS011;18385;51.572;6.578;2022-12-31T19:10:45;2.97;;;0.90;;
31676;SDS011;18385;51.572;6.578;2022-12-31T19:13:13;6.10;;;1.23;;
31676;SDS011;18385;51.572;6.578;2022-12-31T19:15:41;2.30;;;1.20;;
31676;SDS011;18385;51.572;6.578;2022-12-31T19:18:08;3.40;;;1.02;;
31676;SDS011;18385;51.572;6.578;2022-12-31T19:20:33;2.92;;;0.93;;
31676;SDS011;18385;51.572;6.578;2022-12-31T19:22:59;2.65;;;0.75;;
31676;SDS011;18385;51.572;6.578;2022-12-31T19:25:26;3.03;;;0.85;;
31676;SDS011;18385;51.572;6.578;2022-12-31T19:27:56;4.35;;;0.60;;
31676;SDS011;18385;51.572;6.578;2022-12-31T19:30:26;9.55;;;0.93;;
31676;SDS011;18385;51.572;6.578;2022-12-31T19:32:54;3.17;;;1.00;;
31676;SDS011;18385;51.572;6.578;2022-12-31T19:35:20;4.63;;;0.77;;